Private Wetterstation Sandau
Wetterdaten: Mittwoch, 01.05.2013
Datum Zeit Temp. A. Feuchte A. Luftdruck Regen Wind Richtung Richtung Taupunkt Windchill
01.05.2013 00:01 9,2 C 62 % 1025,4 hPa 0,0 l/m 4,0 km/h (1 Bft) O-NO 67 2,3 C 9,2 C
01.05.2013 00:06 9,1 C 63 % 1025,5 hPa 0,0 l/m 5,0 km/h (1 Bft) N 360 2,4 C 8,7 C
01.05.2013 00:11 9,1 C 63 % 1025,5 hPa 0,0 l/m 3,2 km/h (1 Bft) N-NO 22 2,4 C 9,1 C
01.05.2013 00:16 9,0 C 63 % 1025,4 hPa 0,0 l/m 2,9 km/h (1 Bft) N-NO 22 2,3 C 9,0 C
01.05.2013 00:21 8,9 C 64 % 1025,4 hPa 0,0 l/m 3,6 km/h (1 Bft) NO 45 2,5 C 8,9 C
01.05.2013 00:26 8,9 C 65 % 1025,6 hPa 0,0 l/m 3,6 km/h (1 Bft) NO 45 2,7 C 8,9 C
01.05.2013 00:31 8,8 C 65 % 1025,7 hPa 0,0 l/m 9,7 km/h (2 Bft) O-NO 67 2,6 C 7,3 C
01.05.2013 00:36 8,8 C 66 % 1025,8 hPa 0,0 l/m 6,5 km/h (2 Bft) O-NO 67 2,8 C 8,0 C
01.05.2013 00:41 8,6 C 67 % 1025,8 hPa 0,0 l/m 2,2 km/h (1 Bft) O-NO 67 2,8 C 8,6 C
01.05.2013 00:46 8,5 C 67 % 1025,9 hPa 0,0 l/m 4,0 km/h (1 Bft) O 90 2,7 C 8,5 C
01.05.2013 00:51 8,4 C 67 % 1025,9 hPa 0,0 l/m 4,7 km/h (1 Bft) NO 45 2,6 C 8,0 C
01.05.2013 00:56 8,3 C 68 % 1026,1 hPa 0,0 l/m 7,9 km/h (2 Bft) O-NO 67 2,7 C 7,0 C
01.05.2013 01:01 8,1 C 68 % 1026,0 hPa 0,0 l/m 3,6 km/h (1 Bft) NO 45 2,6 C 8,1 C
01.05.2013 01:06 7,9 C 69 % 1026,0 hPa 0,0 l/m 2,9 km/h (1 Bft) NO 45 2,6 C 7,9 C
01.05.2013 01:11 7,9 C 69 % 1026,0 hPa 0,0 l/m 5,8 km/h (2 Bft) O-NO 67 2,6 C 7,1 C
01.05.2013 01:16 7,8 C 69 % 1026,1 hPa 0,0 l/m 4,0 km/h (1 Bft) NO 45 2,5 C 7,8 C
01.05.2013 01:21 7,7 C 70 % 1026,0 hPa 0,0 l/m 6,1 km/h (2 Bft) O-NO 67 2,6 C 6,8 C
01.05.2013 01:26 7,6 C 70 % 1026,1 hPa 0,0 l/m 3,6 km/h (1 Bft) NO 45 2,5 C 7,6 C
01.05.2013 01:31 7,5 C 71 % 1026,1 hPa 0,0 l/m 5,0 km/h (1 Bft) NO 45 2,6 C 6,9 C
01.05.2013 01:36 7,4 C 71 % 1026,3 hPa 0,0 l/m 6,5 km/h (2 Bft) NO 45 2,5 C 6,3 C
01.05.2013 01:41 7,3 C 71 % 1026,1 hPa 0,0 l/m 3,6 km/h (1 Bft) O-NO 67 2,4 C 7,3 C
01.05.2013 01:46 7,3 C 71 % 1026,2 hPa 0,0 l/m 5,0 km/h (1 Bft) O-NO 67 2,4 C 6,7 C
01.05.2013 01:51 7,2 C 71 % 1026,2 hPa 0,0 l/m 2,2 km/h (1 Bft) O-NO 67 2,3 C 7,2 C
01.05.2013 01:56 7,2 C 71 % 1026,3 hPa 0,0 l/m 2,5 km/h (1 Bft) O-NO 67 2,3 C 7,2 C
01.05.2013 02:01 7,1 C 72 % 1026,2 hPa 0,0 l/m 3,6 km/h (1 Bft) O-NO 67 2,4 C 7,1 C
01.05.2013 02:06 7,0 C 72 % 1026,2 hPa 0,0 l/m 2,2 km/h (1 Bft) NO 45 2,3 C 7,0 C
01.05.2013 02:11 6,9 C 72 % 1026,3 hPa 0,0 l/m 0,0 km/h (0 Bft) NO 45 2,2 C 6,9 C
01.05.2013 02:16 6,9 C 72 % 1026,2 hPa 0,0 l/m 0,0 km/h (0 Bft) NO 45 2,2 C 6,9 C
01.05.2013 02:21 6,9 C 72 % 1026,2 hPa 0,0 l/m 1,4 km/h (1 Bft) NO 45 2,2 C 6,9 C
01.05.2013 02:26 6,9 C 72 % 1026,1 hPa 0,0 l/m 2,2 km/h (1 Bft) NO 45 2,2 C 6,9 C
01.05.2013 02:31 6,9 C 72 % 1026,3 hPa 0,0 l/m 1,1 km/h (1 Bft) NO 45 2,2 C 6,9 C
01.05.2013 02:36 6,8 C 72 % 1026,3 hPa 0,0 l/m 4,0 km/h (1 Bft) N 360 2,1 C 6,8 C
01.05.2013 02:41 6,8 C 72 % 1026,4 hPa 0,0 l/m 1,8 km/h (1 Bft) N-NO 22 2,1 C 6,8 C
01.05.2013 02:46 6,7 C 72 % 1026,4 hPa 0,0 l/m 2,5 km/h (1 Bft) N-NO 22 2,0 C 6,7 C
01.05.2013 02:51 6,6 C 72 % 1026,5 hPa 0,0 l/m 2,9 km/h (1 Bft) N-NO 22 1,9 C 6,6 C
01.05.2013 02:56 6,5 C 72 % 1026,5 hPa 0,0 l/m 2,2 km/h (1 Bft) NO 45 1,8 C 6,5 C
01.05.2013 03:01 6,4 C 73 % 1026,5 hPa 0,0 l/m 2,2 km/h (1 Bft) NO 45 1,9 C 6,4 C
01.05.2013 03:06 6,4 C 73 % 1026,6 hPa 0,0 l/m 0,0 km/h (0 Bft) O-NO 67 1,9 C 6,4 C
01.05.2013 03:11 6,4 C 73 % 1026,6 hPa 0,0 l/m 1,4 km/h (1 Bft) O-NO 67 1,9 C 6,4 C
01.05.2013 03:16 6,4 C 73 % 1026,6 hPa 0,0 l/m 2,2 km/h (1 Bft) N-NO 22 1,9 C 6,4 C
01.05.2013 03:21 6,3 C 73 % 1026,6 hPa 0,0 l/m 3,6 km/h (1 Bft) N-NO 22 1,8 C 6,3 C
01.05.2013 03:26 6,3 C 73 % 1026,6 hPa 0,0 l/m 0,0 km/h (0 Bft) N-NO 22 1,8 C 6,3 C
01.05.2013 03:31 6,3 C 73 % 1026,5 hPa 0,0 l/m 2,2 km/h (1 Bft) NO 45 1,8 C 6,3 C
01.05.2013 03:36 6,2 C 73 % 1026,6 hPa 0,0 l/m 0,0 km/h (0 Bft) N-NO 22 1,7 C 6,2 C
01.05.2013 03:41 6,1 C 73 % 1026,6 hPa 0,0 l/m 0,0 km/h (0 Bft) O-NO 67 1,6 C 6,1 C
01.05.2013 03:46 6,1 C 73 % 1026,5 hPa 0,0 l/m 0,0 km/h (0 Bft) O-NO 67 1,6 C 6,1 C
01.05.2013 03:51 6,1 C 73 % 1026,6 hPa 0,0 l/m 2,2 km/h (1 Bft) N 360 1,6 C 6,1 C
01.05.2013 03:56 6,1 C 73 % 1026,7 hPa 0,0 l/m 2,2 km/h (1 Bft) N-NO 22 1,6 C 6,1 C
01.05.2013 04:01 5,9 C 73 % 1026,8 hPa 0,0 l/m 0,0 km/h (0 Bft) N-NO 22 1,4 C 5,9 C
01.05.2013 04:06 5,9 C 74 % 1026,8 hPa 0,0 l/m 0,0 km/h (0 Bft) N-NO 22 1,6 C 5,9 C
01.05.2013 04:11 5,9 C 74 % 1026,7 hPa 0,0 l/m 0,0 km/h (0 Bft) N-NO 22 1,6 C 5,9 C
01.05.2013 04:16 5,9 C 74 % 1026,8 hPa 0,0 l/m 1,4 km/h (1 Bft) O-NO 67 1,6 C 5,9 C
01.05.2013 04:21 5,9 C 74 % 1026,8 hPa 0,0 l/m 0,0 km/h (0 Bft) O-NO 67 1,6 C 5,9 C
01.05.2013 04:26 5,8 C 74 % 1026,6 hPa 0,0 l/m 2,9 km/h (1 Bft) N-NO 22 1,5 C 5,8 C
01.05.2013 04:31 5,8 C 74 % 1026,6 hPa 0,0 l/m 0,0 km/h (0 Bft) O-NO 67 1,5 C 5,8 C
01.05.2013 04:36 5,8 C 74 % 1026,7 hPa 0,0 l/m 0,0 km/h (0 Bft) O-NO 67 1,5 C 5,8 C
01.05.2013 04:41 5,6 C 74 % 1026,7 hPa 0,0 l/m 1,8 km/h (1 Bft) O-NO 67 1,3 C 5,6 C
01.05.2013 04:46 5,6 C 74 % 1026,7 hPa 0,0 l/m 0,0 km/h (0 Bft) O-NO 67 1,3 C 5,6 C
01.05.2013 04:51 5,6 C 75 % 1026,8 hPa 0,0 l/m 2,2 km/h (1 Bft) O-NO 67 1,5 C 5,6 C
01.05.2013 04:56 5,5 C 75 % 1026,9 hPa 0,0 l/m 0,0 km/h (0 Bft) O-NO 67 1,4 C 5,5 C
01.05.2013 05:01 5,5 C 75 % 1026,8 hPa 0,0 l/m 1,8 km/h (1 Bft) O-NO 67 1,4 C 5,5 C
01.05.2013 05:06 5,5 C 75 % 1026,8 hPa 0,0 l/m 0,0 km/h (0 Bft) NO 45 1,4 C 5,5 C
01.05.2013 05:11 5,5 C 75 % 1026,8 hPa 0,0 l/m 0,0 km/h (0 Bft) NO 45 1,4 C 5,5 C
01.05.2013 05:16 5,4 C 75 % 1026,8 hPa 0,0 l/m 0,0 km/h (0 Bft) N-NO 22 1,3 C 5,4 C
01.05.2013 05:21 5,4 C 75 % 1026,9 hPa 0,0 l/m 0,0 km/h (0 Bft) N-NO 22 1,3 C 5,4 C
01.05.2013 05:26 5,4 C 75 % 1026,8 hPa 0,0 l/m 0,0 km/h (0 Bft) N-NO 22 1,3 C 5,4 C
01.05.2013 05:31 5,3 C 75 % 1027,0 hPa 0,0 l/m 0,0 km/h (0 Bft) N-NO 22 1,2 C 5,3 C
01.05.2013 05:36 5,2 C 75 % 1027,0 hPa 0,0 l/m 0,0 km/h (0 Bft) N-NO 22 1,1 C 5,2 C
01.05.2013 05:41 5,2 C 75 % 1027,0 hPa 0,0 l/m 0,0 km/h (0 Bft) NO 45 1,1 C 5,2 C
01.05.2013 05:46 5,1 C 76 % 1027,1 hPa 0,0 l/m 2,5 km/h (1 Bft) N-NO 22 1,2 C 5,1 C
01.05.2013 05:51 5,1 C 76 % 1027,2 hPa 0,0 l/m 0,0 km/h (0 Bft) NO 45 1,2 C 5,1 C
01.05.2013 05:56 4,9 C 76 % 1027,2 hPa 0,0 l/m 0,0 km/h (0 Bft) NO 45 1,0 C 4,9 C
01.05.2013 06:01 5,0 C 76 % 1027,3 hPa 0,0 l/m 1,4 km/h (1 Bft) NO 45 1,1 C 5,0 C
01.05.2013 06:06 5,0 C 77 % 1027,1 hPa 0,0 l/m 1,1 km/h (1 Bft) O-NO 67 1,3 C 5,0 C
01.05.2013 06:11 5,1 C 76 % 1027,3 hPa 0,0 l/m 0,0 km/h (0 Bft) NO 45 1,2 C 5,1 C
01.05.2013 06:16 5,1 C 76 % 1027,2 hPa 0,0 l/m 0,0 km/h (0 Bft) NO 45 1,2 C 5,1 C
01.05.2013 06:21 5,1 C 76 % 1027,2 hPa 0,0 l/m 0,0 km/h (0 Bft) NO 45 1,2 C 5,1 C
01.05.2013 06:26 5,1 C 76 % 1027,2 hPa 0,0 l/m 0,0 km/h (0 Bft) NO 45 1,2 C 5,1 C
01.05.2013 06:31 5,1 C 76 % 1027,2 hPa 0,0 l/m 1,1 km/h (1 Bft) NO 45 1,2 C 5,1 C
01.05.2013 06:36 5,2 C 76 % 1027,3 hPa 0,0 l/m 1,4 km/h (1 Bft) NO 45 1,3 C 5,2 C
01.05.2013 06:41 5,3 C 77 % 1027,4 hPa 0,0 l/m 0,0 km/h (0 Bft) NO 45 1,6 C 5,3 C
01.05.2013 06:46 5,9 C 77 % 1027,4 hPa 0,0 l/m 0,0 km/h (0 Bft) NO 45 2,2 C 5,9 C
01.05.2013 06:51 6,9 C 75 % 1027,4 hPa 0,0 l/m 4,0 km/h (1 Bft) NO 45 2,8 C 6,9 C
01.05.2013 06:56 7,5 C 71 % 1027,5 hPa 0,0 l/m 4,0 km/h (1 Bft) NO 45 2,6 C 7,5 C
01.05.2013 07:01 7,9 C 70 % 1027,4 hPa 0,0 l/m 1,1 km/h (1 Bft) O-NO 67 2,8 C 7,9 C
01.05.2013 07:06 8,2 C 68 % 1027,5 hPa 0,0 l/m 2,2 km/h (1 Bft) NO 45 2,7 C 8,2 C
01.05.2013 07:11 8,4 C 67 % 1027,5 hPa 0,0 l/m 5,0 km/h (1 Bft) O-NO 67 2,6 C 7,9 C
01.05.2013 07:16 8,4 C 66 % 1027,4 hPa 0,0 l/m 3,2 km/h (1 Bft) O-NO 67 2,4 C 8,4 C
01.05.2013 07:21 8,1 C 66 % 1027,3 hPa 0,0 l/m 5,0 km/h (1 Bft) NO 45 2,1 C 7,6 C
01.05.2013 07:26 7,9 C 67 % 1027,5 hPa 0,0 l/m 3,2 km/h (1 Bft) O-NO 67 2,2 C 7,9 C
01.05.2013 07:31 7,9 C 67 % 1027,6 hPa 0,0 l/m 4,3 km/h (1 Bft) O-NO 67 2,2 C 7,9 C
01.05.2013 07:36 7,9 C 67 % 1027,5 hPa 0,0 l/m 2,5 km/h (1 Bft) NO 45 2,2 C 7,9 C
01.05.2013 07:41 7,9 C 67 % 1027,4 hPa 0,0 l/m 6,5 km/h (2 Bft) O-NO 67 2,2 C 6,9 C
01.05.2013 07:46 8,1 C 67 % 1027,4 hPa 0,0 l/m 6,1 km/h (2 Bft) O-SO 112 2,3 C 7,3 C
01.05.2013 07:51 8,2 C 67 % 1027,5 hPa 0,0 l/m 5,8 km/h (2 Bft) NO 45 2,4 C 7,5 C
01.05.2013 07:56 8,3 C 67 % 1027,7 hPa 0,0 l/m 6,5 km/h (2 Bft) NO 45 2,5 C 7,4 C
01.05.2013 08:01 8,4 C 67 % 1027,6 hPa 0,0 l/m 6,1 km/h (2 Bft) O-SO 112 2,6 C 7,6 C
01.05.2013 08:06 8,6 C 67 % 1027,5 hPa 0,0 l/m 4,3 km/h (1 Bft) O 90 2,8 C 8,6 C
01.05.2013 08:11 8,8 C 67 % 1027,6 hPa 0,0 l/m 4,7 km/h (1 Bft) O-NO 67 3,0 C 8,5 C
01.05.2013 08:16 8,9 C 66 % 1027,6 hPa 0,0 l/m 7,6 km/h (2 Bft) O-SO 112 2,9 C 7,8 C
01.05.2013 08:21 9,0 C 66 % 1027,6 hPa 0,0 l/m 11,2 km/h (2 Bft) O-SO 112 3,0 C 7,2 C
01.05.2013 08:26 9,3 C 65 % 1027,6 hPa 0,0 l/m 6,5 km/h (2 Bft) O-SO 112 3,1 C 8,5 C
01.05.2013 08:31 9,2 C 65 % 1027,7 hPa 0,0 l/m 6,8 km/h (2 Bft) O-SO 112 3,0 C 8,3 C
01.05.2013 08:36 9,2 C 65 % 1027,7 hPa 0,0 l/m 8,3 km/h (2 Bft) O 90 3,0 C 8,0 C
01.05.2013 08:41 9,2 C 65 % 1027,9 hPa 0,0 l/m 6,8 km/h (2 Bft) O 90 3,0 C 8,3 C
01.05.2013 08:46 9,5 C 64 % 1027,7 hPa 0,0 l/m 2,5 km/h (1 Bft) NO 45 3,0 C 9,5 C
01.05.2013 08:51 9,8 C 65 % 1027,7 hPa 0,0 l/m 3,6 km/h (1 Bft) O-NO 67 3,5 C 9,8 C
01.05.2013 08:56 10,1 C 64 % 1027,7 hPa 0,0 l/m 5,0 km/h (1 Bft) O 90 3,6 C 10,1 C
01.05.2013 09:01 10,3 C 63 % 1027,8 hPa 0,0 l/m 4,7 km/h (1 Bft) O-NO 67 3,6 C 10,3 C
01.05.2013 09:06 10,4 C 63 % 1027,6 hPa 0,0 l/m 5,4 km/h (1 Bft) O-NO 67 3,7 C 10,4 C
01.05.2013 09:11 10,8 C 62 % 1027,7 hPa 0,0 l/m 9,4 km/h (2 Bft) SO 135 3,8 C 10,8 C
01.05.2013 09:16 11,1 C 61 % 1027,8 hPa 0,0 l/m 4,7 km/h (1 Bft) NO 45 3,9 C 11,1 C
01.05.2013 09:21 11,3 C 60 % 1027,9 hPa 0,0 l/m 3,2 km/h (1 Bft) O-NO 67 3,8 C 11,3 C
01.05.2013 09:26 11,6 C 59 % 1027,8 hPa 0,0 l/m 7,9 km/h (2 Bft) O 90 3,9 C 11,6 C
01.05.2013 09:31 11,6 C 58 % 1027,8 hPa 0,0 l/m 9,7 km/h (2 Bft) O-SO 112 3,6 C 11,6 C
01.05.2013 09:36 11,7 C 58 % 1027,8 hPa 0,0 l/m 3,2 km/h (1 Bft) O-NO 67 3,7 C 11,7 C
01.05.2013 09:41 11,9 C 58 % 1027,9 hPa 0,0 l/m 8,6 km/h (2 Bft) O 90 3,9 C 11,9 C
01.05.2013 09:46 11,9 C 57 % 1027,9 hPa 0,0 l/m 5,4 km/h (1 Bft) SO 135 3,7 C 11,9 C
01.05.2013 09:51 12,1 C 57 % 1027,9 hPa 0,0 l/m 5,0 km/h (1 Bft) NO 45 3,8 C 12,1 C
01.05.2013 09:56 12,2 C 56 % 1027,9 hPa 0,0 l/m 4,3 km/h (1 Bft) O-NO 67 3,7 C 12,2 C
01.05.2013 10:01 12,5 C 56 % 1027,9 hPa 0,0 l/m 5,0 km/h (1 Bft) SO 135 4,0 C 12,5 C
01.05.2013 10:06 12,8 C 55 % 1027,6 hPa 0,0 l/m 6,1 km/h (2 Bft) O-SO 112 4,0 C 12,8 C
01.05.2013 10:11 13,0 C 54 % 1027,6 hPa 0,0 l/m 5,8 km/h (2 Bft) O-NO 67 3,9 C 13,0 C
01.05.2013 10:16 13,1 C 54 % 1027,6 hPa 0,0 l/m 2,9 km/h (1 Bft) O-SO 112 4,0 C 13,1 C
01.05.2013 10:21 13,2 C 53 % 1027,7 hPa 0,0 l/m 14,8 km/h (3 Bft) O-NO 67 3,8 C 13,2 C
01.05.2013 10:26 13,2 C 53 % 1027,7 hPa 0,0 l/m 6,1 km/h (2 Bft) NO 45 3,8 C 13,2 C
01.05.2013 10:31 13,1 C 52 % 1027,7 hPa 0,0 l/m 6,1 km/h (2 Bft) S-SO 157 3,5 C 13,1 C
01.05.2013 10:36 13,3 C 52 % 1027,5 hPa 0,0 l/m 4,3 km/h (1 Bft) O-NO 67 3,7 C 13,3 C
01.05.2013 10:41 13,6 C 51 % 1027,5 hPa 0,0 l/m 6,1 km/h (2 Bft) O-SO 112 3,7 C 13,6 C
01.05.2013 10:46 13,9 C 51 % 1027,3 hPa 0,0 l/m 14,4 km/h (3 Bft) O 90 3,9 C 13,9 C
01.05.2013 10:51 14,1 C 50 % 1027,6 hPa 0,0 l/m 7,2 km/h (2 Bft) O 90 3,8 C 14,1 C
01.05.2013 10:56 14,3 C 50 % 1027,4 hPa 0,0 l/m 7,9 km/h (2 Bft) O-SO 112 4,0 C 14,3 C
01.05.2013 11:01 14,4 C 50 % 1027,3 hPa 0,0 l/m 3,2 km/h (1 Bft) SO 135 4,1 C 14,4 C
01.05.2013 11:06 14,7 C 49 % 1027,4 hPa 0,0 l/m 10,4 km/h (2 Bft) O-NO 67 4,1 C 14,7 C
01.05.2013 11:11 14,9 C 49 % 1027,4 hPa 0,0 l/m 7,6 km/h (2 Bft) O-NO 67 4,3 C 14,9 C
01.05.2013 11:16 15,1 C 48 % 1027,3 hPa 0,0 l/m 4,3 km/h (1 Bft) NO 45 4,2 C 15,1 C
01.05.2013 11:21 15,2 C 47 % 1027,2 hPa 0,0 l/m 3,6 km/h (1 Bft) SO 135 4,0 C 15,2 C
01.05.2013 11:26 15,2 C 47 % 1027,1 hPa 0,0 l/m 8,3 km/h (2 Bft) O-NO 67 4,0 C 15,2 C
01.05.2013 11:31 15,2 C 48 % 1027,1 hPa 0,0 l/m 4,0 km/h (1 Bft) S-SO 157 4,3 C 15,2 C
01.05.2013 11:36 15,5 C 46 % 1027,1 hPa 0,0 l/m 16,6 km/h (3 Bft) S 180 3,9 C 15,5 C
01.05.2013 11:41 15,6 C 45 % 1027,0 hPa 0,0 l/m 9,7 km/h (2 Bft) O-NO 67 3,7 C 15,6 C
01.05.2013 11:46 15,7 C 45 % 1027,0 hPa 0,0 l/m 4,7 km/h (1 Bft) SO 135 3,8 C 15,7 C
01.05.2013 11:51 15,8 C 44 % 1026,9 hPa 0,0 l/m 5,8 km/h (2 Bft) S-SO 157 3,6 C 15,8 C
01.05.2013 11:56 15,8 C 45 % 1026,9 hPa 0,0 l/m 3,6 km/h (1 Bft) S-SO 157 3,9 C 15,8 C
01.05.2013 12:01 15,9 C 45 % 1026,8 hPa 0,0 l/m 12,2 km/h (2 Bft) O-SO 112 4,0 C 15,9 C
01.05.2013 12:06 16,2 C 43 % 1026,8 hPa 0,0 l/m 8,3 km/h (2 Bft) SO 135 3,6 C 16,2 C
01.05.2013 12:11 16,1 C 44 % 1026,8 hPa 0,0 l/m 6,1 km/h (2 Bft) NO 45 3,8 C 16,1 C
01.05.2013 12:16 16,3 C 43 % 1026,7 hPa 0,0 l/m 0,0 km/h (0 Bft) O-SO 112 3,7 C 16,3 C
01.05.2013 12:21 16,4 C 41 % 1026,7 hPa 0,0 l/m 11,5 km/h (2 Bft) SO 135 3,1 C 16,4 C
01.05.2013 12:26 16,5 C 42 % 1026,5 hPa 0,0 l/m 2,2 km/h (1 Bft) O 90 3,5 C 16,5 C
01.05.2013 12:31 16,8 C 41 % 1026,6 hPa 0,0 l/m 9,7 km/h (2 Bft) O-NO 67 3,5 C 16,8 C
01.05.2013 12:36 16,6 C 41 % 1026,6 hPa 0,0 l/m 7,2 km/h (2 Bft) SO 135 3,3 C 16,6 C
01.05.2013 12:41 16,8 C 40 % 1026,5 hPa 0,0 l/m 8,3 km/h (2 Bft) O-SO 112 3,1 C 16,8 C
01.05.2013 12:46 16,9 C 38 % 1026,4 hPa 0,0 l/m 3,6 km/h (1 Bft) S-SO 157 2,5 C 16,9 C
01.05.2013 12:51 17,1 C 40 % 1026,3 hPa 0,0 l/m 5,8 km/h (2 Bft) O 90 3,4 C 17,1 C
01.05.2013 12:56 16,9 C 39 % 1026,3 hPa 0,0 l/m 9,7 km/h (2 Bft) S-SO 157 2,9 C 16,9 C
01.05.2013 13:01 17,0 C 38 % 1026,3 hPa 0,0 l/m 5,4 km/h (1 Bft) O-SO 112 2,6 C 17,0 C
01.05.2013 13:06 17,1 C 37 % 1026,3 hPa 0,0 l/m 8,6 km/h (2 Bft) S-SO 157 2,3 C 17,1 C
01.05.2013 13:11 17,3 C 39 % 1026,2 hPa 0,0 l/m 2,5 km/h (1 Bft) SO 135 3,2 C 17,3 C
01.05.2013 13:16 17,5 C 38 % 1026,0 hPa 0,0 l/m 3,6 km/h (1 Bft) O-SO 112 3,0 C 17,5 C
01.05.2013 13:21 17,6 C 38 % 1025,8 hPa 0,0 l/m 11,2 km/h (2 Bft) S-SW 202 3,1 C 17,6 C
01.05.2013 13:26 17,8 C 38 % 1025,8 hPa 0,0 l/m 6,5 km/h (2 Bft) SO 135 3,3 C 17,8 C
01.05.2013 13:31 17,9 C 38 % 1025,8 hPa 0,0 l/m 6,1 km/h (2 Bft) S-SO 157 3,4 C 17,9 C
01.05.2013 13:36 17,9 C 37 % 1025,6 hPa 0,0 l/m 15,5 km/h (3 Bft) O-NO 67 3,0 C 17,9 C
01.05.2013 13:41 17,9 C 36 % 1025,6 hPa 0,0 l/m 9,4 km/h (2 Bft) S-SO 157 2,6 C 17,9 C
01.05.2013 13:46 18,2 C 37 % 1025,6 hPa 0,0 l/m 16,9 km/h (3 Bft) O 90 3,3 C 18,2 C
01.05.2013 13:51 18,3 C 39 % 1025,6 hPa 0,0 l/m 16,9 km/h (3 Bft) O-NO 67 4,1 C 18,3 C
01.05.2013 13:56 18,5 C 38 % 1025,5 hPa 0,0 l/m 7,9 km/h (2 Bft) O-SO 112 3,9 C 18,5 C
01.05.2013 14:01 17,9 C 38 % 1025,4 hPa 0,0 l/m 4,3 km/h (1 Bft) NO 45 3,4 C 17,9 C
01.05.2013 14:06 17,6 C 39 % 1025,5 hPa 0,0 l/m 1,4 km/h (1 Bft) O 90 3,5 C 17,6 C
01.05.2013 14:11 17,6 C 39 % 1025,4 hPa 0,0 l/m 17,3 km/h (3 Bft) O 90 3,5 C 17,6 C
01.05.2013 14:16 17,4 C 38 % 1025,4 hPa 0,0 l/m 7,2 km/h (2 Bft) O 90 2,9 C 17,4 C
01.05.2013 14:21 17,4 C 39 % 1025,3 hPa 0,0 l/m 8,3 km/h (2 Bft) S-SO 157 3,3 C 17,4 C
01.05.2013 14:26 17,5 C 40 % 1025,3 hPa 0,0 l/m 8,6 km/h (2 Bft) O-SO 112 3,8 C 17,5 C
01.05.2013 14:31 17,4 C 40 % 1025,2 hPa 0,0 l/m 4,3 km/h (1 Bft) NO 45 3,7 C 17,4 C
01.05.2013 14:36 17,5 C 40 % 1025,2 hPa 0,0 l/m 7,2 km/h (2 Bft) O-NO 67 3,8 C 17,5 C
01.05.2013 14:41 17,5 C 40 % 1025,1 hPa 0,0 l/m 4,3 km/h (1 Bft) O 90 3,8 C 17,5 C
01.05.2013 14:46 17,5 C 40 % 1025,1 hPa 0,0 l/m 4,3 km/h (1 Bft) O-NO 67 3,8 C 17,5 C
01.05.2013 14:51 17,4 C 40 % 1025,1 hPa 0,0 l/m 4,0 km/h (1 Bft) O-NO 67 3,7 C 17,4 C
01.05.2013 14:56 17,6 C 40 % 1025,1 hPa 0,0 l/m 4,7 km/h (1 Bft) NO 45 3,8 C 17,6 C
01.05.2013 15:01 17,6 C 40 % 1025,0 hPa 0,0 l/m 6,1 km/h (2 Bft) O 90 3,8 C 17,6 C
01.05.2013 15:06 17,8 C 40 % 1024,9 hPa 0,0 l/m 1,4 km/h (1 Bft) O 90 4,0 C 17,8 C
01.05.2013 15:11 17,9 C 40 % 1024,9 hPa 0,0 l/m 4,3 km/h (1 Bft) O-NO 67 4,1 C 17,9 C
01.05.2013 15:16 17,9 C 40 % 1024,9 hPa 0,0 l/m 5,0 km/h (1 Bft) O 90 4,1 C 17,9 C
01.05.2013 15:21 17,8 C 40 % 1024,8 hPa 0,0 l/m 4,3 km/h (1 Bft) O-NO 67 4,0 C 17,8 C
01.05.2013 15:26 17,6 C 40 % 1024,7 hPa 0,0 l/m 11,5 km/h (2 Bft) O-NO 67 3,8 C 17,6 C
01.05.2013 15:31 17,4 C 40 % 1024,6 hPa 0,0 l/m 9,7 km/h (2 Bft) O 90 3,7 C 17,4 C
01.05.2013 15:36 17,5 C 41 % 1024,6 hPa 0,0 l/m 7,9 km/h (2 Bft) SO 135 4,1 C 17,5 C
01.05.2013 15:41 17,6 C 41 % 1024,6 hPa 0,0 l/m 5,8 km/h (2 Bft) O-NO 67 4,2 C 17,6 C
01.05.2013 15:46 17,5 C 40 % 1024,4 hPa 0,0 l/m 2,5 km/h (1 Bft) O-NO 67 3,8 C 17,5 C
01.05.2013 15:51 17,3 C 40 % 1024,5 hPa 0,0 l/m 5,0 km/h (1 Bft) O-NO 67 3,6 C 17,3 C
01.05.2013 15:56 17,3 C 41 % 1024,4 hPa 0,0 l/m 7,6 km/h (2 Bft) O-NO 67 3,9 C 17,3 C
01.05.2013 16:01 17,3 C 40 % 1024,4 hPa 0,0 l/m 5,4 km/h (1 Bft) SO 135 3,6 C 17,3 C
01.05.2013 16:06 17,2 C 41 % 1024,4 hPa 0,0 l/m 4,0 km/h (1 Bft) SO 135 3,8 C 17,2 C
01.05.2013 16:11 17,3 C 41 % 1024,3 hPa 0,0 l/m 3,6 km/h (1 Bft) NO 45 3,9 C 17,3 C
01.05.2013 16:16 17,3 C 41 % 1024,3 hPa 0,0 l/m 3,2 km/h (1 Bft) SO 135 3,9 C 17,3 C
01.05.2013 16:21 17,5 C 41 % 1024,0 hPa 0,0 l/m 5,8 km/h (2 Bft) SO 135 4,1 C 17,5 C
01.05.2013 16:26 17,6 C 40 % 1024,0 hPa 0,0 l/m 4,0 km/h (1 Bft) O-SO 112 3,8 C 17,6 C
01.05.2013 16:31 17,6 C 40 % 1024,0 hPa 0,0 l/m 7,2 km/h (2 Bft) O-NO 67 3,8 C 17,6 C
01.05.2013 16:36 17,6 C 40 % 1023,9 hPa 0,0 l/m 9,7 km/h (2 Bft) O-NO 67 3,8 C 17,6 C
01.05.2013 16:41 17,4 C 40 % 1023,8 hPa 0,0 l/m 4,7 km/h (1 Bft) NO 45 3,7 C 17,4 C
01.05.2013 16:46 17,3 C 41 % 1023,8 hPa 0,0 l/m 3,6 km/h (1 Bft) O-NO 67 3,9 C 17,3 C
01.05.2013 16:51 17,2 C 41 % 1023,9 hPa 0,0 l/m 7,9 km/h (2 Bft) O-NO 67 3,8 C 17,2 C
01.05.2013 16:56 17,3 C 41 % 1023,7 hPa 0,0 l/m 4,0 km/h (1 Bft) SO 135 3,9 C 17,3 C
01.05.2013 17:01 17,3 C 41 % 1023,8 hPa 0,0 l/m 2,2 km/h (1 Bft) O-SO 112 3,9 C 17,3 C
01.05.2013 17:06 17,2 C 41 % 1023,7 hPa 0,0 l/m 5,0 km/h (1 Bft) O-SO 112 3,8 C 17,2 C
01.05.2013 17:11 17,2 C 41 % 1023,7 hPa 0,0 l/m 4,0 km/h (1 Bft) O-SO 112 3,8 C 17,2 C
01.05.2013 17:16 17,2 C 42 % 1023,5 hPa 0,0 l/m 13,7 km/h (3 Bft) SO 135 4,2 C 17,2 C
01.05.2013 17:21 17,2 C 42 % 1023,7 hPa 0,0 l/m 7,9 km/h (2 Bft) S-SO 157 4,2 C 17,2 C
01.05.2013 17:26 17,2 C 41 % 1023,4 hPa 0,0 l/m 7,9 km/h (2 Bft) O-SO 112 3,8 C 17,2 C
01.05.2013 17:31 17,2 C 41 % 1023,4 hPa 0,0 l/m 7,9 km/h (2 Bft) O-NO 67 3,8 C 17,2 C
01.05.2013 17:36 17,1 C 42 % 1023,4 hPa 0,0 l/m 10,1 km/h (2 Bft) O-SO 112 4,1 C 17,1 C
01.05.2013 17:41 17,1 C 42 % 1023,3 hPa 0,0 l/m 5,8 km/h (2 Bft) S-SO 157 4,1 C 17,1 C
01.05.2013 17:46 17,1 C 43 % 1023,3 hPa 0,0 l/m 3,6 km/h (1 Bft) SO 135 4,4 C 17,1 C
01.05.2013 17:51 17,2 C 42 % 1023,3 hPa 0,0 l/m 3,2 km/h (1 Bft) SO 135 4,2 C 17,2 C
01.05.2013 17:56 17,2 C 43 % 1023,1 hPa 0,0 l/m 6,1 km/h (2 Bft) S-SO 157 4,5 C 17,2 C
01.05.2013 18:01 17,3 C 42 % 1023,0 hPa 0,0 l/m 6,8 km/h (2 Bft) SO 135 4,3 C 17,3 C
01.05.2013 18:06 17,2 C 43 % 1023,2 hPa 0,0 l/m 10,4 km/h (2 Bft) SO 135 4,5 C 17,2 C
01.05.2013 18:11 17,2 C 43 % 1023,1 hPa 0,0 l/m 1,4 km/h (1 Bft) S-SO 157 4,5 C 17,2 C
01.05.2013 18:16 17,1 C 43 % 1023,1 hPa 0,0 l/m 2,9 km/h (1 Bft) S-SO 157 4,4 C 17,1 C
01.05.2013 18:21 17,1 C 43 % 1023,1 hPa 0,0 l/m 5,0 km/h (1 Bft) S-SO 157 4,4 C 17,1 C
01.05.2013 18:26 16,9 C 43 % 1023,1 hPa 0,0 l/m 5,0 km/h (1 Bft) S-SO 157 4,2 C 16,9 C
01.05.2013 18:31 16,8 C 43 % 1023,0 hPa 0,0 l/m 2,2 km/h (1 Bft) S-SO 157 4,2 C 16,8 C
01.05.2013 18:36 16,8 C 44 % 1022,9 hPa 0,0 l/m 2,9 km/h (1 Bft) SO 135 4,5 C 16,8 C
01.05.2013 18:41 16,9 C 44 % 1022,9 hPa 0,0 l/m 5,8 km/h (2 Bft) S-SO 157 4,6 C 16,9 C
01.05.2013 18:46 16,9 C 44 % 1022,9 hPa 0,0 l/m 1,4 km/h (1 Bft) O-SO 112 4,6 C 16,9 C
01.05.2013 18:51 16,8 C 45 % 1023,0 hPa 0,0 l/m 8,6 km/h (2 Bft) S-SO 157 4,8 C 16,8 C
01.05.2013 18:56 16,7 C 45 % 1023,0 hPa 0,0 l/m 2,5 km/h (1 Bft) S-SO 157 4,7 C 16,7 C
01.05.2013 19:01 16,6 C 45 % 1022,9 hPa 0,0 l/m 4,0 km/h (1 Bft) SO 135 4,6 C 16,6 C
01.05.2013 19:06 16,4 C 45 % 1022,8 hPa 0,0 l/m 2,2 km/h (1 Bft) SO 135 4,4 C 16,4 C
01.05.2013 19:11 16,3 C 45 % 1022,8 hPa 0,0 l/m 2,5 km/h (1 Bft) S-SO 157 4,3 C 16,3 C
01.05.2013 19:16 16,3 C 46 % 1022,8 hPa 0,0 l/m 1,4 km/h (1 Bft) S-SO 157 4,7 C 16,3 C
01.05.2013 19:21 16,1 C 47 % 1023,0 hPa 0,0 l/m 6,8 km/h (2 Bft) SO 135 4,8 C 16,1 C
01.05.2013 19:26 15,9 C 47 % 1023,2 hPa 0,0 l/m 2,9 km/h (1 Bft) S-SO 157 4,6 C 15,9 C
01.05.2013 19:31 15,9 C 48 % 1023,2 hPa 0,0 l/m 3,6 km/h (1 Bft) SO 135 4,9 C 15,9 C
01.05.2013 19:36 15,8 C 48 % 1023,1 hPa 0,0 l/m 8,6 km/h (2 Bft) SO 135 4,8 C 15,8 C
01.05.2013 19:41 15,7 C 49 % 1023,0 hPa 0,0 l/m 4,0 km/h (1 Bft) SO 135 5,0 C 15,7 C
01.05.2013 19:46 15,6 C 49 % 1023,1 hPa 0,0 l/m 1,4 km/h (1 Bft) SO 135 4,9 C 15,6 C
01.05.2013 19:51 15,5 C 50 % 1023,0 hPa 0,0 l/m 1,4 km/h (1 Bft) SO 135 5,1 C 15,5 C
01.05.2013 19:56 15,4 C 50 % 1023,1 hPa 0,0 l/m 1,8 km/h (1 Bft) SO 135 5,0 C 15,4 C
01.05.2013 20:01 15,3 C 51 % 1023,0 hPa 0,0 l/m 2,5 km/h (1 Bft) S-SO 157 5,2 C 15,3 C
01.05.2013 20:06 15,2 C 51 % 1023,0 hPa 0,0 l/m 0,0 km/h (0 Bft) SO 135 5,1 C 15,2 C
01.05.2013 20:11 15,0 C 52 % 1023,3 hPa 0,0 l/m 0,0 km/h (0 Bft) SO 135 5,2 C 15,0 C
01.05.2013 20:16 14,9 C 52 % 1023,2 hPa 0,0 l/m 0,0 km/h (0 Bft) S-SO 157 5,1 C 14,9 C
01.05.2013 20:21 14,9 C 52 % 1023,2 hPa 0,0 l/m 0,0 km/h (0 Bft) SO 135 5,1 C 14,9 C
01.05.2013 20:26 14,9 C 53 % 1023,2 hPa 0,0 l/m 1,1 km/h (1 Bft) O-SO 112 5,4 C 14,9 C
01.05.2013 20:31 14,8 C 54 % 1023,2 hPa 0,0 l/m 2,2 km/h (1 Bft) SO 135 5,6 C 14,8 C
01.05.2013 20:36 14,7 C 54 % 1023,3 hPa 0,0 l/m 2,2 km/h (1 Bft) O 90 5,5 C 14,7 C
01.05.2013 20:41 14,6 C 54 % 1023,2 hPa 0,0 l/m 0,0 km/h (0 Bft) SO 135 5,4 C 14,6 C
01.05.2013 20:46 14,6 C 54 % 1023,2 hPa 0,0 l/m 0,0 km/h (0 Bft) SO 135 5,4 C 14,6 C
01.05.2013 20:51 14,5 C 54 % 1023,2 hPa 0,0 l/m 0,0 km/h (0 Bft) SO 135 5,3 C 14,5 C
01.05.2013 20:56 14,4 C 55 % 1023,2 hPa 0,0 l/m 1,8 km/h (1 Bft) SO 135 5,5 C 14,4 C
01.05.2013 21:01 14,4 C 55 % 1023,1 hPa 0,0 l/m 0,0 km/h (0 Bft) SO 135 5,5 C 14,4 C
01.05.2013 21:06 14,3 C 55 % 1023,1 hPa 0,0 l/m 0,0 km/h (0 Bft) SO 135 5,4 C 14,3 C
01.05.2013 21:11 14,3 C 56 % 1023,1 hPa 0,0 l/m 0,0 km/h (0 Bft) SO 135 5,6 C 14,3 C
01.05.2013 21:16 14,2 C 56 % 1023,2 hPa 0,0 l/m 0,0 km/h (0 Bft) SO 135 5,6 C 14,2 C
01.05.2013 21:21 14,1 C 56 % 1023,2 hPa 0,0 l/m 0,0 km/h (0 Bft) O 90 5,5 C 14,1 C
01.05.2013 21:26 14,1 C 55 % 1023,2 hPa 0,0 l/m 0,0 km/h (0 Bft) O-NO 67 5,2 C 14,1 C
01.05.2013 21:31 14,0 C 56 % 1023,1 hPa 0,0 l/m 2,9 km/h (1 Bft) O-NO 67 5,4 C 14,0 C
01.05.2013 21:36 13,9 C 56 % 1023,0 hPa 0,0 l/m 2,2 km/h (1 Bft) O-NO 67 5,3 C 13,9 C
01.05.2013 21:41 13,9 C 56 % 1022,9 hPa 0,0 l/m 0,0 km/h (0 Bft) O-NO 67 5,3 C 13,9 C
01.05.2013 21:46 13,8 C 56 % 1022,9 hPa 0,0 l/m 1,4 km/h (1 Bft) O-NO 67 5,2 C 13,8 C
01.05.2013 21:51 13,7 C 57 % 1022,9 hPa 0,0 l/m 1,1 km/h (1 Bft) O-NO 67 5,3 C 13,7 C
01.05.2013 21:56 13,6 C 57 % 1022,9 hPa 0,0 l/m 1,1 km/h (1 Bft) O-NO 67 5,2 C 13,6 C
01.05.2013 22:01 13,6 C 57 % 1022,9 hPa 0,0 l/m 2,5 km/h (1 Bft) O-NO 67 5,2 C 13,6 C
01.05.2013 22:06 13,5 C 58 % 1023,0 hPa 0,0 l/m 0,0 km/h (0 Bft) O-NO 67 5,4 C 13,5 C
01.05.2013 22:11 13,4 C 58 % 1022,9 hPa 0,0 l/m 0,0 km/h (0 Bft) O-NO 67 5,3 C 13,4 C
01.05.2013 22:16 13,4 C 59 % 1022,9 hPa 0,0 l/m 0,0 km/h (0 Bft) O-NO 67 5,6 C 13,4 C
01.05.2013 22:21 13,3 C 60 % 1022,8 hPa 0,0 l/m 2,2 km/h (1 Bft) NO 45 5,7 C 13,3 C
01.05.2013 22:26 13,2 C 60 % 1023,0 hPa 0,0 l/m 2,2 km/h (1 Bft) NO 45 5,6 C 13,2 C
01.05.2013 22:31 13,1 C 60 % 1022,9 hPa 0,0 l/m 0,0 km/h (0 Bft) NO 45 5,5 C 13,1 C
01.05.2013 22:36 13,1 C 61 % 1023,0 hPa 0,0 l/m 2,5 km/h (1 Bft) O-NO 67 5,8 C 13,1 C
01.05.2013 22:41 13,0 C 61 % 1022,7 hPa 0,0 l/m 2,2 km/h (1 Bft) O-NO 67 5,7 C 13,0 C
01.05.2013 22:46 12,9 C 61 % 1022,6 hPa 0,0 l/m 1,8 km/h (1 Bft) O-NO 67 5,6 C 12,9 C
01.05.2013 22:51 12,9 C 61 % 1022,5 hPa 0,0 l/m 0,0 km/h (0 Bft) O-NO 67 5,6 C 12,9 C
01.05.2013 22:56 12,8 C 61 % 1022,6 hPa 0,0 l/m 2,2 km/h (1 Bft) O-NO 67 5,5 C 12,8 C
01.05.2013 23:01 12,8 C 62 % 1022,6 hPa 0,0 l/m 0,0 km/h (0 Bft) O-NO 67 5,7 C 12,8 C
01.05.2013 23:06 12,7 C 62 % 1022,5 hPa 0,0 l/m 0,0 km/h (0 Bft) O-NO 67 5,6 C 12,7 C
01.05.2013 23:11 12,7 C 62 % 1022,6 hPa 0,0 l/m 0,0 km/h (0 Bft) O-NO 67 5,6 C 12,7 C
01.05.2013 23:16 12,7 C 62 % 1022,6 hPa 0,0 l/m 0,0 km/h (0 Bft) O-NO 67 5,6 C 12,7 C
01.05.2013 23:21 12,6 C 63 % 1022,6 hPa 0,0 l/m 0,0 km/h (0 Bft) O-NO 67 5,7 C 12,6 C
01.05.2013 23:26 12,6 C 63 % 1022,6 hPa 0,0 l/m 0,0 km/h (0 Bft) O-NO 67 5,7 C 12,6 C
01.05.2013 23:31 12,6 C 63 % 1022,8 hPa 0,0 l/m 0,0 km/h (0 Bft) O-NO 67 5,7 C 12,6 C
01.05.2013 23:36 12,6 C 63 % 1022,7 hPa 0,0 l/m 0,0 km/h (0 Bft) O-NO 67 5,7 C 12,6 C
01.05.2013 23:41 12,6 C 63 % 1022,7 hPa 0,0 l/m 0,0 km/h (0 Bft) O-NO 67 5,7 C 12,6 C
01.05.2013 23:46 12,6 C 64 % 1022,8 hPa 0,0 l/m 1,4 km/h (1 Bft) O-NO 67 6,0 C 12,6 C
01.05.2013 23:51 12,5 C 64 % 1022,7 hPa 0,0 l/m 0,0 km/h (0 Bft) SO 135 5,9 C 12,5 C
01.05.2013 23:56 12,5 C 64 % 1022,6 hPa 0,0 l/m 0,0 km/h (0 Bft) O 90 5,9 C 12,5 C
_ Min-Zeit 05:56 13:41 22:51 - 02:11 - - 05:56 05:56
Minimum _ 4,9 C 36 % 1022,5 hPa - 0,0 km/h (0 Bft) - - 1,0 C 4,9 C
_ Max-Zeit 13:56 06:06 08:41 00:01 14:11 - - 23:46 13:56
Maximum _ 18,5 C 77 % 1027,9 hPa 0,0 l/m 17,3 km/h
O (3 Bft)
- - 6,0 C 18,5 C
Durchschnitt _ 12,3 C 57 % 1025,5 hPa #0,0 l/m 4,0 km/h (1 Bft) O-NO - 3,5 C 12,2 C
(c) by David Heller